createdAt,value
2022-11-29T00:01:29.062Z,83.05
2022-11-29T00:03:56.624Z,88.70
2022-11-29T00:06:35.464Z,80.10
2022-11-29T00:09:11.892Z,87.10
2022-11-29T00:12:03.714Z,90.75
2022-11-29T00:14:46.133Z,83.30
2022-11-29T00:17:15.659Z,88.60
2022-11-29T00:19:42.784Z,77.60
2022-11-29T00:22:09.724Z,83.82
2022-11-29T00:24:36.900Z,84.80
2022-11-29T00:27:04.021Z,87.82
2022-11-29T00:29:31.270Z,84.95
2022-11-29T00:31:58.409Z,79.72
2022-11-29T00:34:25.340Z,82.22
2022-11-29T00:36:52.317Z,86.68
2022-11-29T00:39:19.475Z,89.30
2022-11-29T00:41:46.766Z,75.38
2022-11-29T00:44:19.715Z,82.90
2022-11-29T00:46:57.852Z,77.25
2022-11-29T00:49:24.847Z,78.45
2022-11-29T00:51:51.822Z,77.40
2022-11-29T00:54:19.029Z,82.90
2022-11-29T00:56:46.023Z,77.60
2022-11-29T00:59:13.006Z,81.22
2022-11-29T01:01:40.113Z,81.85
2022-11-29T01:04:07.522Z,81.70
2022-11-29T01:06:34.532Z,82.45
2022-11-29T01:09:01.586Z,83.55
2022-11-29T01:11:29.175Z,85.60
2022-11-29T01:13:59.376Z,76.85
2022-11-29T01:16:27.609Z,81.85
2022-11-29T01:18:54.634Z,80.32
2022-11-29T01:21:25.658Z,77.00
2022-11-29T01:23:54.009Z,76.97
2022-11-29T01:26:24.103Z,80.40
2022-11-29T01:28:52.716Z,75.53
2022-11-29T01:31:29.750Z,78.20
2022-11-29T01:33:58.628Z,78.10
2022-11-29T01:36:26.366Z,80.43
2022-11-29T01:38:53.555Z,80.53
2022-11-29T01:41:23.605Z,85.82
2022-11-29T01:43:55.509Z,80.07
2022-11-29T01:46:22.703Z,80.85
2022-11-29T01:48:51.982Z,83.38
2022-11-29T01:51:19.215Z,81.63
2022-11-29T01:53:46.945Z,83.90
2022-11-29T01:56:15.521Z,84.47
2022-11-29T01:58:44.962Z,85.00
2022-11-29T02:01:12.557Z,79.68
2022-11-29T02:03:39.943Z,82.50
2022-11-29T02:06:07.859Z,81.78
2022-11-29T02:08:40.699Z,80.45
2022-11-29T02:11:07.571Z,78.93
2022-11-29T02:13:56.224Z,83.70
2022-11-29T02:16:42.540Z,73.47
2022-11-29T02:19:30.895Z,83.95
2022-11-29T02:22:25.676Z,87.47
2022-11-29T02:25:03.791Z,80.95
2022-11-29T02:27:52.123Z,77.32
2022-11-29T02:30:27.934Z,88.30
2022-11-29T02:33:32.211Z,88.13
2022-11-29T02:36:17.536Z,85.30
2022-11-29T02:39:07.144Z,92.68
2022-11-29T02:42:00.983Z,91.68
2022-11-29T02:44:49.531Z,80.28
2022-11-29T02:47:22.236Z,85.10
2022-11-29T02:50:02.542Z,90.88
2022-11-29T02:52:48.023Z,82.75
2022-11-29T02:55:18.089Z,85.93
2022-11-29T02:57:57.561Z,86.47
2022-11-29T03:00:25.045Z,83.03
2022-11-29T03:02:52.015Z,86.15
2022-11-29T03:05:33.973Z,89.00
2022-11-29T03:08:15.836Z,85.97
2022-11-29T03:11:12.084Z,86.68
2022-11-29T03:13:55.859Z,87.07
2022-11-29T03:16:25.754Z,85.60
2022-11-29T03:18:58.560Z,88.25
2022-11-29T03:21:31.370Z,82.80
2022-11-29T03:24:09.660Z,88.03
2022-11-29T03:26:44.086Z,76.15
2022-11-29T03:29:34.909Z,84.68
2022-11-29T03:32:07.891Z,76.88
2022-11-29T03:34:56.987Z,74.40
2022-11-29T03:37:51.791Z,75.68
2022-11-29T03:40:24.581Z,77.75
2022-11-29T03:42:59.177Z,75.82
2022-11-29T03:45:34.956Z,79.22
2022-11-29T03:48:22.051Z,79.60
2022-11-29T03:50:52.990Z,84.70
2022-11-29T03:53:54.910Z,81.57
2022-11-29T03:56:34.107Z,89.00
2022-11-29T03:59:38.772Z,84.47
2022-11-29T04:02:36.707Z,96.10
2022-11-29T04:05:32.855Z,85.60
2022-11-29T04:08:17.666Z,82.07
2022-11-29T04:11:16.927Z,89.32
2022-11-29T04:14:02.451Z,86.93
2022-11-29T04:17:01.838Z,89.03
2022-11-29T04:19:49.156Z,93.32
2022-11-29T04:22:35.226Z,88.95
2022-11-29T04:25:34.407Z,90.65
2022-11-29T04:28:21.451Z,93.35
2022-11-29T04:31:10.360Z,91.20
2022-11-29T04:33:58.381Z,96.00
2022-11-29T04:36:37.306Z,85.90
2022-11-29T04:39:27.676Z,84.65
2022-11-29T04:42:21.862Z,95.22
2022-11-29T04:45:07.353Z,81.85
2022-11-29T04:47:49.013Z,91.82
2022-11-29T04:50:47.909Z,100.65
2022-11-29T04:53:14.821Z,95.68
2022-11-29T04:55:53.449Z,91.18
2022-11-29T04:58:38.503Z,95.53
2022-11-29T05:01:29.713Z,94.18
2022-11-29T05:04:21.327Z,93.72
2022-11-29T05:07:20.516Z,89.57
2022-11-29T05:09:47.470Z,100.70
2022-11-29T05:12:19.323Z,90.03
2022-11-29T05:15:10.248Z,93.70
2022-11-29T05:17:53.112Z,92.18
2022-11-29T05:20:38.983Z,97.53
2022-11-29T05:23:40.791Z,95.18
2022-11-29T05:26:32.609Z,104.15
2022-11-29T05:29:10.312Z,101.15
2022-11-29T05:31:55.755Z,108.00
2022-11-29T05:35:00.875Z,102.05
2022-11-29T05:37:54.111Z,104.85
2022-11-29T05:40:45.797Z,103.70
2022-11-29T05:43:33.002Z,93.10
2022-11-29T05:46:09.294Z,99.05
2022-11-29T05:49:00.220Z,88.22
2022-11-29T05:51:42.209Z,100.32
2022-11-29T05:54:27.295Z,92.25
2022-11-29T05:57:03.120Z,96.55
2022-11-29T05:59:31.061Z,100.50
2022-11-29T06:02:16.216Z,97.80
2022-11-29T06:04:51.539Z,102.18
2022-11-29T06:07:29.049Z,98.97
2022-11-29T06:10:11.665Z,108.72
2022-11-29T06:12:39.102Z,113.65
2022-11-29T06:15:41.137Z,101.05
2022-11-29T06:18:19.160Z,111.18
2022-11-29T06:20:54.889Z,106.55
2022-11-29T06:23:41.607Z,105.35
2022-11-29T06:26:11.434Z,112.28
2022-11-29T06:29:22.230Z,115.10
2022-11-29T06:32:13.165Z,105.30
2022-11-29T06:34:54.527Z,106.55
2022-11-29T06:37:31.488Z,108.82
2022-11-29T06:39:58.675Z,107.70
2022-11-29T06:42:25.633Z,108.15
2022-11-29T06:44:52.964Z,111.05
2022-11-29T06:47:32.852Z,116.03
2022-11-29T06:50:26.897Z,103.68
2022-11-29T06:53:33.824Z,102.15
2022-11-29T06:56:22.390Z,109.13
2022-11-29T06:58:52.326Z,111.68
2022-11-29T07:01:30.607Z,98.30
2022-11-29T07:04:26.593Z,99.72
2022-11-29T07:06:53.839Z,108.75
2022-11-29T07:09:25.604Z,109.22
2022-11-29T07:11:52.881Z,101.22
2022-11-29T07:14:20.194Z,101.93
2022-11-29T07:17:10.049Z,107.45
2022-11-29T07:20:21.046Z,104.25
2022-11-29T07:22:53.701Z,108.68
2022-11-29T07:25:42.209Z,109.18
2022-11-29T07:28:38.048Z,102.15
2022-11-29T07:31:34.206Z,109.13
2022-11-29T07:34:13.252Z,101.78
2022-11-29T07:37:15.723Z,93.78
2022-11-29T07:39:47.893Z,149.35
2022-11-29T07:42:27.063Z,110.90
2022-11-29T07:45:11.485Z,101.00
2022-11-29T07:47:38.497Z,93.95
2022-11-29T07:50:06.078Z,100.72
2022-11-29T07:52:33.943Z,92.00
2022-11-29T07:55:01.573Z,101.38
2022-11-29T07:57:28.569Z,92.88
2022-11-29T07:59:55.522Z,88.93
2022-11-29T08:02:30.281Z,104.85
2022-11-29T08:04:57.596Z,95.43
2022-11-29T08:07:24.735Z,97.72
2022-11-29T08:09:51.868Z,91.97
2022-11-29T08:12:18.919Z,89.47
2022-11-29T08:14:46.088Z,88.47
2022-11-29T08:17:13.230Z,89.60
2022-11-29T08:19:40.171Z,96.45
2022-11-29T08:22:07.118Z,84.75
2022-11-29T08:24:34.133Z,84.43
2022-11-29T08:27:01.359Z,82.38
2022-11-29T08:29:28.380Z,92.20
2022-11-29T08:31:55.919Z,91.00
2022-11-29T08:34:24.079Z,92.75
2022-11-29T08:36:51.651Z,91.95
2022-11-29T08:39:18.588Z,96.80
2022-11-29T08:41:45.534Z,87.07
2022-11-29T08:44:12.492Z,89.90
2022-11-29T08:46:57.851Z,88.45
2022-11-29T08:49:24.807Z,88.35
2022-11-29T08:52:15.903Z,91.50
2022-11-29T08:54:43.444Z,82.30
2022-11-29T08:57:39.508Z,87.63
2022-11-29T08:59:57.765Z,90.65
2022-11-29T09:02:24.734Z,82.95
2022-11-29T09:04:51.691Z,77.22
2022-11-29T09:07:18.748Z,89.43
2022-11-29T09:09:45.754Z,89.72
2022-11-29T09:12:12.660Z,81.70
2022-11-29T09:14:39.655Z,96.57
2022-11-29T09:17:06.539Z,98.00
2022-11-29T09:19:33.436Z,82.53
2022-11-29T09:22:05.019Z,85.63
2022-11-29T09:24:37.519Z,94.03
2022-11-29T09:27:05.066Z,92.10
2022-11-29T09:29:32.138Z,84.18
2022-11-29T09:31:59.199Z,82.30
2022-11-29T09:34:26.887Z,83.60
2022-11-29T09:36:54.268Z,84.13
2022-11-29T09:39:21.764Z,86.75
2022-11-29T09:41:56.958Z,79.70
2022-11-29T09:44:41.965Z,78.00
2022-11-29T09:47:33.916Z,85.75
2022-11-29T09:50:34.266Z,86.97
2022-11-29T09:53:04.333Z,89.00
2022-11-29T09:55:34.358Z,84.28
2022-11-29T09:58:03.901Z,81.57
2022-11-29T10:00:35.834Z,83.38
2022-11-29T10:03:12.845Z,87.22
2022-11-29T10:05:47.049Z,92.85
2022-11-29T10:08:27.133Z,89.70
2022-11-29T10:11:01.793Z,79.97
2022-11-29T10:13:35.639Z,146.00
2022-11-29T10:16:51.846Z,106.20
2022-11-29T10:19:43.167Z,79.10
2022-11-29T10:22:41.564Z,85.85
2022-11-29T10:25:12.678Z,85.82
2022-11-29T10:27:40.798Z,88.82
2022-11-29T10:30:15.283Z,83.60
2022-11-29T10:32:48.861Z,84.70
2022-11-29T10:35:19.407Z,83.32
2022-11-29T10:38:07.758Z,90.22
2022-11-29T10:40:37.698Z,86.65
2022-11-29T10:43:04.729Z,95.43
2022-11-29T10:45:40.547Z,87.63
2022-11-29T10:48:14.594Z,89.43
2022-11-29T10:50:47.150Z,96.35
2022-11-29T10:53:17.099Z,125.22
2022-11-29T10:56:07.026Z,126.45
2022-11-29T10:58:34.768Z,70.20
2022-11-29T11:01:07.295Z,78.78
2022-11-29T11:03:43.108Z,77.18
2022-11-29T11:06:18.667Z,68.57
2022-11-29T11:08:57.187Z,73.97
2022-11-29T11:11:33.425Z,80.75
2022-11-29T11:14:34.621Z,74.40
2022-11-29T11:17:27.573Z,70.00
2022-11-29T11:20:08.395Z,76.93
2022-11-29T11:22:39.961Z,71.45
2022-11-29T11:25:25.549Z,73.07
2022-11-29T11:27:53.122Z,74.13
2022-11-29T11:30:26.106Z,68.72
2022-11-29T11:33:20.225Z,77.63
2022-11-29T11:36:05.871Z,70.93
2022-11-29T11:38:35.187Z,71.53
2022-11-29T11:41:23.235Z,75.57
2022-11-29T11:44:00.789Z,68.28
2022-11-29T11:46:48.219Z,70.80
2022-11-29T11:49:45.647Z,71.90
2022-11-29T11:52:46.137Z,75.18
2022-11-29T11:55:43.032Z,65.75
2022-11-29T11:58:12.814Z,74.57
2022-11-29T12:01:03.587Z,72.18
2022-11-29T12:03:55.744Z,68.25
2022-11-29T12:06:56.356Z,66.35
2022-11-29T12:09:46.523Z,69.75
2022-11-29T12:12:37.329Z,67.45
2022-11-29T12:15:18.974Z,68.75
2022-11-29T12:18:12.960Z,68.50
2022-11-29T12:20:48.781Z,74.07
2022-11-29T12:23:15.748Z,72.00
2022-11-29T12:26:00.369Z,79.22
2022-11-29T12:28:34.193Z,72.97
2022-11-29T12:31:28.670Z,65.80
2022-11-29T12:34:29.401Z,66.50
2022-11-29T12:37:05.355Z,72.78
2022-11-29T12:39:41.583Z,70.35
2022-11-29T12:42:17.229Z,72.38
2022-11-29T12:45:14.444Z,70.30
2022-11-29T12:48:23.739Z,70.63
2022-11-29T12:50:59.479Z,76.60
2022-11-29T12:54:05.343Z,71.70
2022-11-29T12:57:09.150Z,72.60
2022-11-29T13:00:07.343Z,76.22
2022-11-29T13:03:13.045Z,71.32
2022-11-29T13:06:19.281Z,77.82
2022-11-29T13:09:13.893Z,75.90
2022-11-29T13:11:49.589Z,74.22
2022-11-29T13:14:42.725Z,72.20
2022-11-29T13:20:04.303Z,77.78
2022-11-29T13:23:11.298Z,75.50
2022-11-29T13:25:42.022Z,78.65
2022-11-29T13:28:23.410Z,75.22
2022-11-29T13:30:51.102Z,82.47
2022-11-29T13:33:24.890Z,73.15
2022-11-29T13:36:18.214Z,80.55
2022-11-29T13:38:59.903Z,80.80
2022-11-29T13:41:46.447Z,72.72
2022-11-29T13:44:27.792Z,70.07
2022-11-29T13:47:13.910Z,68.47
2022-11-29T13:49:58.189Z,66.35
2022-11-29T13:52:32.979Z,72.15
2022-11-29T13:55:12.028Z,71.45
2022-11-29T13:58:21.979Z,69.85
2022-11-29T14:00:51.808Z,74.97
2022-11-29T14:03:26.079Z,75.75
2022-11-29T14:05:54.665Z,76.63
2022-11-29T14:12:00.169Z,76.35
2022-11-29T14:14:56.069Z,80.18
2022-11-29T14:17:59.240Z,78.63
2022-11-29T14:20:28.026Z,85.78
2022-11-29T14:23:15.988Z,83.88
2022-11-29T14:25:54.997Z,85.00
2022-11-29T14:28:21.919Z,84.97
2022-11-29T14:30:57.246Z,85.28
2022-11-29T14:33:45.776Z,83.65
2022-11-29T14:36:17.577Z,73.68
2022-11-29T14:39:10.393Z,83.97
2022-11-29T14:41:56.861Z,81.55
2022-11-29T14:44:32.296Z,78.20
2022-11-29T14:47:07.874Z,84.10
2022-11-29T14:49:43.544Z,79.07
2022-11-29T14:52:18.439Z,77.00
2022-11-29T14:54:58.932Z,79.07
2022-11-29T14:57:47.494Z,76.60
2022-11-29T15:00:44.074Z,72.50
2022-11-29T15:03:17.067Z,66.63
2022-11-29T15:05:47.164Z,73.28
2022-11-29T15:08:35.066Z,70.57
2022-11-29T15:11:22.353Z,67.82
2022-11-29T15:13:59.206Z,67.75
2022-11-29T15:16:41.072Z,74.80
2022-11-29T15:19:40.752Z,74.60
2022-11-29T15:22:17.566Z,72.82
2022-11-29T15:25:02.811Z,78.75
2022-11-29T15:27:30.114Z,71.57
2022-11-29T15:29:59.072Z,75.68
2022-11-29T15:32:32.717Z,73.32
2022-11-29T15:35:01.023Z,73.95
2022-11-29T15:37:37.414Z,69.15
2022-11-29T15:40:10.625Z,76.07
2022-11-29T15:42:45.881Z,74.45
2022-11-29T15:45:35.232Z,73.97
2022-11-29T15:48:11.745Z,71.15
2022-11-29T15:50:42.065Z,71.75
2022-11-29T15:53:16.720Z,70.00
2022-11-29T15:55:44.740Z,68.38
2022-11-29T15:58:14.362Z,72.25
2022-11-29T16:00:43.942Z,71.57
2022-11-29T16:03:25.575Z,75.05
2022-11-29T16:06:01.662Z,71.60
2022-11-29T16:08:33.418Z,70.65
2022-11-29T16:11:00.955Z,78.85
2022-11-29T16:13:41.761Z,72.68
2022-11-29T16:16:28.817Z,69.00
2022-11-29T16:19:07.836Z,67.30
2022-11-29T16:21:34.849Z,66.05
2022-11-29T16:24:19.438Z,73.60
2022-11-29T16:26:49.801Z,65.55
2022-11-29T16:29:29.234Z,73.57
2022-11-29T16:31:56.563Z,72.72
2022-11-29T16:34:33.846Z,68.35
2022-11-29T16:37:06.653Z,70.00
2022-11-29T16:39:37.836Z,67.18
2022-11-29T16:42:25.781Z,69.20
2022-11-29T16:44:54.412Z,63.55
2022-11-29T16:47:22.523Z,71.22
2022-11-29T16:50:13.047Z,70.93
2022-11-29T16:52:40.054Z,68.57
2022-11-29T16:55:07.286Z,72.85
2022-11-29T16:57:34.876Z,70.00
2022-11-29T17:00:01.984Z,67.30
2022-11-29T17:02:30.097Z,68.40
2022-11-29T17:04:58.190Z,69.65
2022-11-29T17:07:32.155Z,71.05
2022-11-29T17:09:59.764Z,71.25
2022-11-29T17:12:26.778Z,68.15
2022-11-29T17:14:56.262Z,68.50
2022-11-29T17:17:23.468Z,69.45
2022-11-29T17:19:50.944Z,70.10
2022-11-29T17:22:18.020Z,75.47
2022-11-29T17:24:48.248Z,71.95
2022-11-29T17:27:15.797Z,75.20
2022-11-29T17:29:42.775Z,77.25
2022-11-29T17:32:09.744Z,82.22
2022-11-29T17:34:36.695Z,78.25
2022-11-29T17:37:03.695Z,77.95
2022-11-29T17:39:30.645Z,70.93
2022-11-29T17:41:57.580Z,75.00
2022-11-29T17:44:24.619Z,74.85
2022-11-29T17:46:51.536Z,72.18
2022-11-29T17:49:18.938Z,77.10
2022-11-29T17:51:53.800Z,77.30
2022-11-29T17:54:22.693Z,78.85
2022-11-29T17:56:50.045Z,80.95
2022-11-29T17:59:17.210Z,83.80
2022-11-29T18:01:47.207Z,77.90
2022-11-29T18:04:14.374Z,76.65
2022-11-29T18:06:41.501Z,80.00
2022-11-29T18:09:11.130Z,68.93
2022-11-29T18:11:47.465Z,79.00
2022-11-29T18:14:22.616Z,78.25
2022-11-29T18:16:50.176Z,72.95
2022-11-29T18:19:19.684Z,80.53
2022-11-29T18:21:47.363Z,78.18
2022-11-29T18:24:14.507Z,82.18
2022-11-29T18:26:42.030Z,72.97
2022-11-29T18:29:09.867Z,77.32
2022-11-29T18:31:39.822Z,82.47
2022-11-29T18:34:09.776Z,73.30
2022-11-29T18:36:40.278Z,78.05
2022-11-29T18:39:11.069Z,81.82
2022-11-29T18:41:38.589Z,78.68
2022-11-29T18:44:11.822Z,71.03
2022-11-29T18:49:08.731Z,72.43
2022-11-29T18:51:36.922Z,72.18
2022-11-29T18:54:05.003Z,72.68
2022-11-29T18:56:34.528Z,68.28
2022-11-29T18:59:08.800Z,71.22
2022-11-29T19:01:40.634Z,70.10
2022-11-29T19:04:09.810Z,71.53
2022-11-29T19:06:40.047Z,69.90
2022-11-29T19:09:11.484Z,70.63
2022-11-29T19:11:38.584Z,82.78
2022-11-29T19:14:11.829Z,70.45
2022-11-29T19:16:42.274Z,69.78
2022-11-29T19:19:09.381Z,70.05
2022-11-29T19:21:36.455Z,70.70
2022-11-29T19:24:07.707Z,77.07
2022-11-29T19:26:34.969Z,69.65
2022-11-29T19:29:02.183Z,68.88
2022-11-29T19:31:29.607Z,77.45
2022-11-29T19:33:57.686Z,75.93
2022-11-29T19:36:26.960Z,70.65
2022-11-29T19:38:54.740Z,70.55
2022-11-29T19:41:23.562Z,74.47
2022-11-29T19:43:50.839Z,74.57
2022-11-29T19:46:30.211Z,75.97
2022-11-29T19:48:59.296Z,77.18
2022-11-29T19:51:27.345Z,75.25
2022-11-29T19:53:59.870Z,79.10
2022-11-29T19:56:28.359Z,77.28
2022-11-29T19:58:55.529Z,75.50
2022-11-29T20:01:25.404Z,77.22
2022-11-29T20:03:53.038Z,72.93
2022-11-29T20:06:20.505Z,75.05
2022-11-29T20:08:47.993Z,71.43
2022-11-29T20:11:20.452Z,68.22
2022-11-29T20:13:58.392Z,73.13
2022-11-29T20:16:26.637Z,63.00
2022-11-29T20:18:54.371Z,65.47
2022-11-29T20:21:24.429Z,65.50
2022-11-29T20:23:56.416Z,62.28
2022-11-29T20:26:24.205Z,68.72
2022-11-29T20:28:51.383Z,66.88
2022-11-29T20:31:22.832Z,66.65
2022-11-29T20:33:52.649Z,67.20
2022-11-29T20:36:38.411Z,58.67
2022-11-29T20:39:11.713Z,64.45
2022-11-29T20:41:54.341Z,66.00
2022-11-29T20:44:43.551Z,67.00
2022-11-29T20:47:17.457Z,64.50
2022-11-29T20:49:45.018Z,62.78
2022-11-29T20:52:19.511Z,66.93
2022-11-29T20:54:46.635Z,68.93
2022-11-29T20:57:13.577Z,61.63
2022-11-29T20:59:40.484Z,64.75
2022-11-29T21:02:07.399Z,69.80
2022-11-29T21:04:34.454Z,65.60
2022-11-29T21:07:01.416Z,58.30
2022-11-29T21:09:28.620Z,72.40
2022-11-29T21:11:55.959Z,83.15
2022-11-29T21:14:23.327Z,71.30
2022-11-29T21:16:50.424Z,66.63
2022-11-29T21:19:24.219Z,71.75
2022-11-29T21:22:21.489Z,70.57
2022-11-29T21:24:54.054Z,63.80
2022-11-29T21:27:28.394Z,80.95
2022-11-29T21:29:55.913Z,76.00
2022-11-29T21:32:25.743Z,75.03
2022-11-29T21:34:53.271Z,67.85
2022-11-29T21:37:25.249Z,72.95
2022-11-29T21:39:53.513Z,71.90
2022-11-29T21:42:20.941Z,71.10
2022-11-29T21:44:48.152Z,80.70
2022-11-29T21:47:15.413Z,75.03
2022-11-29T21:49:42.310Z,63.35
2022-11-29T21:52:09.208Z,65.72
2022-11-29T21:54:36.192Z,76.05
2022-11-29T21:57:03.176Z,82.47
2022-11-29T21:59:30.119Z,92.47
2022-11-29T22:01:57.413Z,91.45
2022-11-29T22:04:25.326Z,80.40
2022-11-29T22:06:52.279Z,76.78
2022-11-29T22:09:19.294Z,71.45
2022-11-29T22:11:46.268Z,81.85
2022-11-29T22:14:16.044Z,86.80
2022-11-29T22:16:52.345Z,77.05
2022-11-29T22:19:24.667Z,85.00
2022-11-29T22:22:03.426Z,85.27
2022-11-29T22:24:36.531Z,85.93
2022-11-29T22:27:14.305Z,87.38
2022-11-29T22:29:46.096Z,83.40
2022-11-29T22:32:14.222Z,81.22
2022-11-29T22:34:44.125Z,79.30
2022-11-29T22:37:13.399Z,76.57
2022-11-29T22:39:46.741Z,78.63
2022-11-29T22:44:44.054Z,70.35
2022-11-29T22:47:11.113Z,72.18
2022-11-29T22:49:38.070Z,70.10
2022-11-29T22:52:05.113Z,75.40
2022-11-29T22:54:32.093Z,68.47
2022-11-29T22:56:59.522Z,68.88
2022-11-29T22:59:26.404Z,70.32
2022-11-29T23:01:53.394Z,71.47
2022-11-29T23:04:20.443Z,69.82
2022-11-29T23:06:47.405Z,76.90
2022-11-29T23:09:17.448Z,80.63
2022-11-29T23:11:46.048Z,76.55
2022-11-29T23:14:13.533Z,76.05
2022-11-29T23:16:40.655Z,74.80
2022-11-29T23:19:07.668Z,75.15
2022-11-29T23:21:37.034Z,90.72
2022-11-29T23:24:04.395Z,85.82
2022-11-29T23:26:36.468Z,80.00
2022-11-29T23:29:05.578Z,82.60
2022-11-29T23:31:33.120Z,74.82
2022-11-29T23:34:00.312Z,78.10
2022-11-29T23:36:27.199Z,78.38
2022-11-29T23:38:54.149Z,74.65
2022-11-29T23:41:21.403Z,80.85
2022-11-29T23:43:48.307Z,73.18
2022-11-29T23:46:20.588Z,67.07
2022-11-29T23:48:48.418Z,65.60
2022-11-29T23:51:16.393Z,72.47
2022-11-29T23:53:43.665Z,73.45
2022-11-29T23:56:14.540Z,71.50
2022-11-29T23:58:42.093Z,72.00
